Time;durP1;ratioP1;P1;durP2;ratioP2;P2;SDS_P1;SDS_P2;PMS_P1;PMS_P2;Temp;Humidity;BMP_temperature;BMP_pressure;BME280_temperature;BME280_humidity;BME280_pressure;Samples;Min_cycle;Max_cycle;Signal;HPM_P1;HPM_P2
2022/01/26 00:00:00;;;;;;;4.80;4.40;;;0.90;99.90;0.10;99659.00;;;;5096671;28;20203;-78
2022/01/26 00:07:58;;;;;;;4.57;3.77;;;0.80;99.90;-0.20;99654.00;;;;5114676;28;20195;-78
2022/01/26 00:10:25;;;;;;;5.27;4.77;;;0.90;99.90;-0.20;99654.00;;;;5114689;28;20656;-79
2022/01/26 00:12:52;;;;;;;4.57;4.17;;;0.80;99.90;-0.10;99650.00;;;;5114625;28;20342;-79
2022/01/26 00:15:21;;;;;;;3.47;3.17;;;0.90;99.90;-0.20;99658.00;;;;5114521;28;20194;-79
2022/01/26 00:17:50;;;;;;;7.40;3.57;;;0.80;99.90;-0.10;99661.00;;;;5114546;28;20208;-80
2022/01/26 00:20:22;;;;;;;8.07;4.73;;;0.90;99.90;-0.20;99662.00;;;;5096558;28;20217;-79
2022/01/26 00:23:03;;;;;;;10.43;3.77;;;0.80;99.90;-0.20;99659.00;;;;5114290;28;20223;-80
2022/01/26 00:25:41;;;;;;;3.00;2.80;;;0.80;99.90;-0.10;99667.00;;;;5114316;28;20248;-80
2022/01/26 00:28:30;;;;;;;2.20;1.93;;;0.90;99.90;0.00;99659.00;;;;5114392;28;20201;-79
2022/01/26 00:39:24;;;;;;;2.97;2.77;;;1.00;99.90;0.20;99661.00;;;;5096276;28;20213;-80
2022/01/26 00:41:55;;;;;;;3.13;2.47;;;1.10;99.90;0.20;99658.00;;;;5114196;28;20194;-81
2022/01/26 00:44:22;;;;;;;2.20;2.07;;;1.10;99.90;0.10;99659.00;;;;5114245;28;20198;-79
2022/01/26 00:46:49;;;;;;;2.20;2.10;;;1.00;99.80;0.10;99675.00;;;;5096331;28;20253;-78
2022/01/26 00:49:20;;;;;;;3.33;2.97;;;1.00;99.90;0.00;99676.00;;;;5114143;28;20217;-79
2022/01/26 00:51:46;;;;;;;2.30;2.10;;;0.90;99.60;0.00;99676.00;;;;5114149;28;20190;-79
2022/01/26 00:54:13;;;;;;;3.00;2.70;;;0.90;99.40;-0.10;99675.00;;;;5114113;28;20233;-79
2022/01/26 00:56:39;;;;;;;2.97;2.67;;;0.80;99.20;-0.20;99671.00;;;;5113919;28;20257;-79
2022/01/26 00:59:06;;;;;;;3.47;3.17;;;0.80;99.10;-0.20;99662.00;;;;5114000;28;20281;-78
2022/01/26 01:01:33;;;;;;;3.43;3.13;;;0.80;99.70;-0.30;99670.00;;;;5096151;28;20568;-77
2022/01/26 01:04:00;;;;;;;4.83;4.43;;;0.70;99.60;-0.50;99660.00;;;;5113986;28;20289;-79
2022/01/26 01:06:30;;;;;;;4.37;3.30;;;0.60;99.40;-0.50;99665.00;;;;5096055;28;20226;-80
2022/01/26 01:08:58;;;;;;;5.20;2.60;;;0.50;99.40;-0.50;99664.00;;;;5113763;28;20688;-80
2022/01/26 01:11:25;;;;;;;7.30;3.03;;;0.50;99.90;-0.70;99667.00;;;;5113787;28;20198;-79
2022/01/26 01:13:51;;;;;;;1.60;1.50;;;0.30;99.90;-0.60;99663.00;;;;5113845;28;20218;-79
2022/01/26 01:16:22;;;;;;;3.33;2.50;;;0.40;99.90;-0.80;99656.00;;;;5113689;28;20264;-79
2022/01/26 01:18:58;;;;;;;2.90;2.70;;;0.40;99.90;-1.00;99667.00;;;;5116551;28;20202;-79
2022/01/26 01:27:18;;;;;;;2.23;2.03;;;0.10;99.90;-1.00;99663.00;;;;5117165;28;20217;-79
2022/01/26 01:29:58;;;;;;;2.60;2.40;;;0.10;99.90;-1.10;99663.00;;;;5117276;28;20245;-79
2022/01/26 01:32:33;;;;;;;3.30;3.03;;;0.00;99.90;-0.80;99675.00;;;;5099177;28;20213;-81
2022/01/26 01:35:00;;;;;;;3.37;3.07;;;0.10;99.90;-0.70;99681.00;;;;5116943;28;20186;-80
2022/01/26 01:37:29;;;;;;;1.73;1.63;;;0.20;99.90;-0.60;99669.00;;;;5117003;28;20194;-80
2022/01/26 01:39:55;;;;;;;3.63;3.13;;;0.30;99.90;-0.70;99678.00;;;;5099129;28;20564;-79
2022/01/26 01:42:24;;;;;;;4.67;2.30;;;0.40;99.90;-0.70;99670.00;;;;5116872;28;20670;-80
2022/01/26 01:44:51;;;;;;;3.87;3.10;;;0.30;99.90;-0.70;99679.00;;;;5116989;28;20259;-80
2022/01/26 01:47:17;;;;;;;6.33;3.50;;;0.20;99.90;-0.80;99661.00;;;;5116752;28;20221;-79
2022/01/26 01:49:47;;;;;;;4.33;3.20;;;0.20;99.90;-0.60;99682.00;;;;5116681;28;20228;-80
2022/01/26 01:52:15;;;;;;;4.17;3.03;;;0.30;99.90;-0.60;99680.00;;;;5098902;28;20505;-80
2022/01/26 01:54:48;;;;;;;2.30;2.10;;;0.30;99.90;-0.50;99667.00;;;;5116759;28;20193;-79
2022/01/26 01:57:21;;;;;;;2.70;2.50;;;0.40;99.90;-0.50;99676.00;;;;5116774;28;20266;-80
2022/01/26 01:59:48;;;;;;;15.93;2.97;;;0.40;99.90;-0.40;99677.00;;;;5116709;28;20178;-78
2022/01/26 02:02:14;;;;;;;2.53;2.40;;;0.40;99.90;-0.40;99668.00;;;;5116491;28;20218;-80
2022/01/26 02:04:43;;;;;;;2.37;2.17;;;0.50;99.90;-0.60;99671.00;;;;5116507;28;20202;-79
2022/01/26 02:07:13;;;;;;;2.27;2.17;;;0.40;99.30;-0.80;99677.00;;;;5116408;28;20238;-78
2022/01/26 02:09:43;;;;;;;7.33;4.10;;;0.20;98.90;-0.70;99678.00;;;;5098435;28;20549;-80
2022/01/26 02:12:15;;;;;;;7.30;4.53;;;0.30;99.90;-1.00;99665.00;;;;5116391;28;20637;-78
2022/01/26 02:14:47;;;;;;;2.60;2.50;;;0.20;99.90;-0.80;99666.00;;;;5116252;28;20208;-80
2022/01/26 02:17:25;;;;;;;3.30;3.03;;;0.20;99.90;-0.80;99664.00;;;;5116366;28;20273;-79
2022/01/26 02:20:11;;;;;;;9.40;2.73;;;0.20;99.90;-0.60;99671.00;;;;5116273;28;20198;-80
2022/01/26 02:50:43;;;;;;;2.37;2.27;;;0.40;99.90;-0.50;99663.00;;;;5115911;28;20644;-77
2022/01/26 02:53:45;;;;;;;5.90;5.00;;;0.40;99.90;-0.60;99666.00;;;;5115862;28;20201;-79
2022/01/26 02:56:21;;;;;;;2.10;2.00;;;0.40;99.90;-0.70;99663.00;;;;5115850;28;20225;-80
2022/01/26 02:58:56;;;;;;;4.33;3.87;;;0.40;99.90;-0.60;99661.00;;;;5115849;28;20213;-78
2022/01/26 03:01:48;;;;;;;3.47;3.27;;;0.40;99.90;-0.60;99651.00;;;;5115716;28;20201;-80
2022/01/26 03:04:22;;;;;;;4.43;3.83;;;0.40;99.90;-0.50;99644.00;;;;5115691;28;20271;-78
2022/01/26 03:06:55;;;;;;;3.57;3.27;;;0.50;99.90;-0.50;99648.00;;;;5115527;28;20225;-79
2022/01/26 03:09:29;;;;;;;3.27;3.07;;;0.40;99.90;-0.60;99646.00;;;;5115443;28;20229;-79
2022/01/26 03:11:57;;;;;;;9.00;3.57;;;0.40;99.90;-0.40;99650.00;;;;5115650;28;20190;-80
2022/01/26 03:14:35;;;;;;;2.67;2.57;;;0.50;99.90;-0.20;99644.00;;;;5115384;28;20198;-79
2022/01/26 03:17:11;;;;;;;4.50;4.10;;;0.60;99.90;-0.20;99643.00;;;;5115542;28;20282;-79
2022/01/26 03:19:40;;;;;;;3.43;3.23;;;0.70;99.90;-0.20;99652.00;;;;5115467;28;20254;-79
2022/01/26 03:30:36;;;;;;;4.07;3.67;;;0.80;99.90;-0.20;99643.00;;;;5115183;28;20201;-79
2022/01/26 03:33:23;;;;;;;3.53;3.10;;;0.80;99.90;-0.20;99655.00;;;;5115162;28;20648;-79
2022/01/26 03:35:54;;;;;;;9.03;6.00;;;0.70;99.90;-0.20;99662.00;;;;5114978;28;20228;-79
2022/01/26 03:38:25;;;;;;;2.67;2.47;;;0.70;99.90;-0.20;99654.00;;;;5115192;28;20186;-79
2022/01/26 03:41:07;;;;;;;1.87;1.77;;;0.70;99.90;-0.20;99666.00;;;;5114175;28;20210;-77
2022/01/26 03:43:34;;;;;;;4.87;2.93;;;0.70;99.90;-0.10;99657.00;;;;5115210;28;20208;-79
2022/01/26 03:46:01;;;;;;;2.93;2.73;;;0.80;99.90;-0.10;99667.00;;;;5114825;28;20545;-79
2022/01/26 03:48:27;;;;;;;13.33;3.97;;;0.70;99.80;-0.30;99660.00;;;;5114879;28;20225;-79
2022/01/26 03:50:54;;;;;;;6.90;4.63;;;0.70;99.60;-0.50;99661.00;;;;5114871;28;20292;-79
2022/01/26 03:53:21;;;;;;;15.40;4.53;;;0.60;99.90;-0.40;99655.00;;;;5114920;28;20233;-80
2022/01/26 03:55:47;;;;;;;4.87;2.93;;;0.60;99.90;-0.50;99662.00;;;;5114745;28;20288;-79
2022/01/26 03:58:15;;;;;;;4.83;3.67;;;0.50;99.90;-0.30;99648.00;;;;5114746;28;20205;-79
2022/01/26 04:00:42;;;;;;;4.67;4.27;;;0.60;99.90;-0.30;99661.00;;;;5114794;28;20240;-77
2022/01/26 04:03:10;;;;;;;4.67;4.27;;;0.60;99.90;-0.30;99659.00;;;;5114733;28;20279;-77
2022/01/26 04:05:36;;;;;;;3.10;2.87;;;0.70;99.90;-0.30;99655.00;;;;5114523;28;20247;-79
2022/01/26 04:08:09;;;;;;;3.87;3.57;;;0.70;99.90;-0.20;99659.00;;;;5114551;28;20667;-78
2022/01/26 04:10:47;;;;;;;9.20;4.93;;;0.70;99.90;-0.20;99661.00;;;;5114643;28;20202;-78
2022/01/26 04:13:13;;;;;;;4.67;4.23;;;0.70;99.90;-0.20;99654.00;;;;5114717;28;20319;-79
2022/01/26 04:15:40;;;;;;;7.03;4.37;;;0.80;99.90;-0.10;99667.00;;;;5114403;28;20217;-79
2022/01/26 04:18:12;;;;;;;4.30;3.90;;;0.80;99.90;0.00;99661.00;;;;5114518;28;20224;-78
2022/01/26 04:20:43;;;;;;;1.40;1.40;;;0.90;99.90;0.00;99659.00;;;;5114534;28;20276;-80
2022/01/26 04:23:17;;;;;;;6.30;3.90;;;0.90;99.90;-0.20;99652.00;;;;5096732;28;20343;-80
2022/01/26 04:25:46;;;;;;;3.03;2.83;;;0.80;99.90;-0.20;99651.00;;;;5114448;28;20638;-79
2022/01/26 04:28:18;;;;;;;3.47;3.17;;;0.80;99.90;-0.40;99635.00;;;;5114222;28;20249;-79
2022/01/26 04:30:44;;;;;;;2.97;2.80;;;0.60;99.90;-0.20;99641.00;;;;5114338;28;20209;-79
2022/01/26 04:33:14;;;;;;;2.67;2.57;;;0.70;99.90;-0.40;99648.00;;;;5114234;28;20699;-79
2022/01/26 04:35:44;;;;;;;6.03;3.07;;;0.60;99.90;-0.40;99641.00;;;;5096287;28;20313;-79
2022/01/26 04:38:18;;;;;;;5.13;3.80;;;0.60;99.90;-0.30;99648.00;;;;5114298;28;20299;-79
2022/01/26 04:41:00;;;;;;;3.40;3.20;;;0.70;99.90;-0.20;99638.00;;;;5114126;28;20194;-79
2022/01/26 04:43:30;;;;;;;5.80;4.10;;;0.70;99.90;-0.20;99633.00;;;;5114164;28;20667;-79
2022/01/26 04:45:57;;;;;;;2.40;2.30;;;0.80;99.90;-0.20;99637.00;;;;5114264;28;20220;-79
2022/01/26 04:48:26;;;;;;;4.60;3.50;;;0.80;99.90;0.00;99639.00;;;;5113940;28;20238;-78
2022/01/26 04:50:55;;;;;;;3.70;3.40;;;0.90;99.90;-0.10;99634.00;;;;5114173;28;20242;-79
2022/01/26 04:53:22;;;;;;;7.93;4.47;;;0.90;99.90;0.00;99626.00;;;;5117788;28;20281;-79
2022/01/26 04:55:48;;;;;;;2.63;2.43;;;0.90;99.90;0.00;99632.00;;;;5099464;28;20217;-79
2022/01/26 04:58:17;;;;;;;2.47;2.30;;;0.90;99.90;-0.20;99614.00;;;;5117470;28;20199;-77
2022/01/26 05:00:44;;;;;;;8.60;4.77;;;0.90;99.90;-0.20;99589.00;;;;5117378;28;20684;-79
2022/01/26 05:03:11;;;;;;;4.53;4.10;;;0.80;99.90;-0.10;99600.00;;;;5117461;28;20202;-80
2022/01/26 05:05:38;;;;;;;4.00;3.60;;;0.80;99.90;-0.20;99640.00;;;;5117315;28;20238;-80
2022/01/26 05:08:05;;;;;;;7.17;3.57;;;0.80;99.90;-0.10;99634.00;;;;5117277;28;20367;-79
2022/01/26 05:10:31;;;;;;;5.53;3.37;;;0.80;99.90;-0.10;99644.00;;;;5117375;28;20288;-79
2022/01/26 05:12:58;;;;;;;4.63;4.23;;;0.90;99.90;0.10;99638.00;;;;5117368;28;20224;-79
2022/01/26 05:15:25;;;;;;;2.67;2.47;;;0.90;99.90;0.10;99657.00;;;;5117394;28;20229;-78
2022/01/26 05:17:54;;;;;;;3.70;3.40;;;1.00;99.90;0.20;99650.00;;;;5117273;28;20217;-77
2022/01/26 05:20:20;;;;;;;3.17;2.87;;;1.00;99.90;0.00;99651.00;;;;5117233;28;20277;-79
2022/01/26 05:22:48;;;;;;;3.43;3.10;;;1.00;99.60;-0.10;99646.00;;;;5117096;28;20265;-79
2022/01/26 05:25:15;;;;;;;3.30;3.10;;;0.90;99.80;-0.10;99644.00;;;;5117168;28;20190;-80
2022/01/26 05:27:42;;;;;;;6.13;3.43;;;0.80;99.60;-0.10;99646.00;;;;5117025;28;20236;-80
2022/01/26 05:30:10;;;;;;;4.20;3.80;;;0.80;99.50;-0.10;99634.00;;;;5099250;28;20209;-79
2022/01/26 05:32:37;;;;;;;3.27;2.97;;;0.80;99.50;-0.30;99631.00;;;;5099157;28;20509;-79
2022/01/26 05:35:04;;;;;;;3.57;2.87;;;0.70;99.80;-0.20;99637.00;;;;5117014;28;20312;-80
2022/01/26 05:37:32;;;;;;;2.50;2.37;;;0.70;99.90;-0.50;99631.00;;;;5117106;28;20569;-79
2022/01/26 05:39:59;;;;;;;3.03;2.83;;;0.60;99.90;-0.30;99573.00;;;;5117027;28;20193;-79
2022/01/26 05:42:29;;;;;;;2.20;1.90;;;0.70;99.90;-0.60;99628.00;;;;5116943;28;20198;-79
2022/01/26 05:45:00;;;;;;;7.77;3.73;;;0.60;99.90;-0.60;99629.00;;;;5116837;28;20190;-77
2022/01/26 05:47:27;;;;;;;2.40;2.20;;;0.50;99.90;-0.40;99632.00;;;;5116716;28;20691;-79
2022/01/26 05:49:56;;;;;;;4.03;2.50;;;0.50;99.90;-0.70;99634.00;;;;5116731;28;20266;-79
2022/01/26 05:52:22;;;;;;;2.50;1.93;;;0.40;99.90;-0.70;99633.00;;;;5116771;28;20198;-79
2022/01/26 05:54:49;;;;;;;3.53;3.30;;;0.40;99.90;-0.60;99640.00;;;;5116693;28;20222;-80
2022/01/26 05:57:16;;;;;;;3.67;2.77;;;0.40;99.90;-0.50;99638.00;;;;5116820;28;20854;-80
2022/01/26 05:59:43;;;;;;;3.50;3.30;;;0.40;99.90;-0.50;99647.00;;;;5116783;28;20198;-80
2022/01/26 06:02:10;;;;;;;4.50;3.53;;;0.40;99.90;-0.50;99635.00;;;;5116727;28;20205;-79
2022/01/26 06:04:36;;;;;;;3.93;3.60;;;0.40;99.90;-0.40;99631.00;;;;5115947;28;20198;-79
2022/01/26 06:07:03;;;;;;;3.33;2.47;;;0.50;99.90;-0.20;99631.00;;;;5116304;28;20213;-78
2022/01/26 06:09:32;;;;;;;3.53;2.73;;;0.60;99.90;-0.40;99629.00;;;;5116625;28;20181;-78
2022/01/26 06:11:59;;;;;;;4.83;3.77;;;0.60;99.90;-0.50;99624.00;;;;5116402;28;20219;-79
2022/01/26 06:14:26;;;;;;;4.23;3.83;;;0.50;99.90;-0.60;99625.00;;;;5116546;28;20229;-79
2022/01/26 06:16:52;;;;;;;4.70;2.90;;;0.40;99.90;-0.50;99626.00;;;;5116602;28;20285;-79
2022/01/26 06:19:19;;;;;;;11.37;3.00;;;0.50;99.90;-0.40;99626.00;;;;5116331;28;20258;-79
2022/01/26 06:21:48;;;;;;;3.93;2.93;;;0.60;99.90;-0.40;99619.00;;;;5116145;28;20676;-78
2022/01/26 06:24:14;;;;;;;5.30;4.27;;;0.60;99.90;-0.40;99625.00;;;;5116252;28;20212;-80
2022/01/26 06:26:44;;;;;;;3.20;2.97;;;0.60;99.90;-0.40;99628.00;;;;5116305;28;20261;-80
2022/01/26 06:29:10;;;;;;;3.77;3.43;;;0.60;99.90;-0.20;99623.00;;;;5116246;28;20259;-79
2022/01/26 06:31:40;;;;;;;4.77;2.93;;;0.70;99.90;-0.30;99620.00;;;;5116132;28;20234;-79
2022/01/26 06:34:11;;;;;;;4.50;3.73;;;0.70;99.90;-0.50;99625.00;;;;5098156;28;20243;-80
2022/01/26 06:36:42;;;;;;;4.33;2.83;;;0.60;99.70;-0.30;99604.00;;;;5116365;28;20247;-78
2022/01/26 06:39:10;;;;;;;5.03;4.17;;;0.50;99.90;-0.40;99620.00;;;;5116131;28;20190;-79
2022/01/26 06:41:37;;;;;;;3.97;2.80;;;0.60;99.90;-0.30;99598.00;;;;5098194;28;20312;-80
2022/01/26 06:44:14;;;;;;;3.87;2.87;;;0.70;99.90;-0.30;99623.00;;;;5098352;28;20656;-80
2022/01/26 06:46:51;;;;;;;4.33;3.70;;;0.70;99.90;-0.30;99616.00;;;;5116880;28;20228;-79
2022/01/26 06:49:29;;;;;;;2.90;2.67;;;0.70;99.90;-0.30;99624.00;;;;5098931;28;20205;-79
2022/01/26 06:51:57;;;;;;;4.87;4.57;;;0.70;99.90;-0.10;99625.00;;;;5116617;28;20204;-79
2022/01/26 06:54:24;;;;;;;5.03;4.73;;;0.70;99.90;-0.20;99634.00;;;;5116905;28;20617;-80
2022/01/26 06:56:53;;;;;;;2.90;2.70;;;0.70;99.90;-0.30;99607.00;;;;5127410;28;20219;-78
2022/01/26 06:59:21;;;;;;;3.60;3.33;;;0.70;99.90;-0.40;99623.00;;;;5126892;28;20194;-79
2022/01/26 07:01:48;;;;;;;2.47;2.33;;;0.60;99.90;-0.50;99642.00;;;;5127196;28;20224;-80
2022/01/26 07:04:15;;;;;;;3.90;3.43;;;0.60;99.90;-0.40;99631.00;;;;5109154;28;20210;-80
2022/01/26 07:06:42;;;;;;;3.17;2.03;;;0.60;99.90;-0.30;99634.00;;;;5127181;28;20672;-79
2022/01/26 07:09:08;;;;;;;6.63;3.00;;;0.70;99.90;-0.30;99642.00;;;;5124231;28;20218;-78
2022/01/26 07:11:38;;;;;;;2.47;2.37;;;0.70;99.90;-0.40;99646.00;;;;5115736;28;20213;-79
2022/01/26 07:14:09;;;;;;;5.47;3.83;;;0.60;99.90;-0.20;99648.00;;;;5115237;28;20229;-80
2022/01/26 07:22:09;;;;;;;8.77;3.37;;;0.70;99.90;-0.60;99660.00;;;;5117172;28;20214;-79
2022/01/26 07:24:38;;;;;;;5.97;2.67;;;0.50;99.70;-0.30;99652.00;;;;5116805;28;20204;-79
2022/01/26 07:27:05;;;;;;;3.40;3.10;;;0.60;99.90;-0.30;99647.00;;;;5116281;28;20248;-79
2022/01/26 07:29:32;;;;;;;5.40;2.70;;;0.60;99.90;-0.30;99655.00;;;;5119713;28;20210;-79
2022/01/26 07:32:04;;;;;;;2.53;2.40;;;0.60;99.90;-0.40;99661.00;;;;5118854;28;20197;-78
2022/01/26 07:34:32;;;;;;;10.47;5.10;;;0.60;99.90;-0.50;99671.00;;;;5127150;28;20197;-79
2022/01/26 07:37:06;;;;;;;5.90;3.63;;;0.50;99.90;-0.50;99676.00;;;;5128427;28;20218;-79
2022/01/26 07:39:43;;;;;;;2.53;2.40;;;0.50;99.90;-0.40;99665.00;;;;5127375;28;20228;-79
2022/01/26 07:42:10;;;;;;;3.90;3.60;;;0.50;99.90;-0.50;99676.00;;;;5109067;28;20202;-80
2022/01/26 07:44:39;;;;;;;4.97;3.90;;;0.50;99.90;-0.50;99667.00;;;;5127469;28;20245;-80
2022/01/26 07:47:07;;;;;;;6.23;3.93;;;0.50;99.90;-0.10;99684.00;;;;5127157;28;20257;-78
2022/01/26 07:49:34;;;;;;;3.43;3.23;;;0.60;99.90;0.00;99679.00;;;;5099834;28;20513;-80
2022/01/26 07:52:05;;;;;;;5.43;3.17;;;0.80;99.90;0.00;99678.00;;;;5115053;28;20219;-79
2022/01/26 07:54:32;;;;;;;7.33;4.43;;;0.90;99.90;0.00;99689.00;;;;5115005;28;20261;-80
2022/01/26 07:57:00;;;;;;;6.90;3.50;;;0.90;99.90;0.00;99689.00;;;;5113820;28;20636;-79
2022/01/26 07:59:27;;;;;;;5.87;5.27;;;0.90;99.70;0.10;99681.00;;;;5114878;28;20277;-79
2022/01/26 08:01:54;;;;;;;4.60;4.20;;;1.00;99.60;0.10;99698.00;;;;5096780;28;20237;-80
2022/01/26 08:04:23;;;;;;;5.53;2.93;;;0.90;99.00;0.00;99658.00;;;;5114813;28;20220;-80
2022/01/26 08:06:50;;;;;;;4.87;4.43;;;1.00;99.00;0.00;99694.00;;;;5114570;28;20312;-80
2022/01/26 08:09:17;;;;;;;4.13;3.73;;;1.00;99.10;0.20;99689.00;;;;5096891;28;20198;-78
2022/01/26 08:11:46;;;;;;;4.23;3.90;;;1.00;99.10;0.10;99696.00;;;;5114627;28;20246;-81
2022/01/26 08:14:12;;;;;;;9.43;4.00;;;1.10;99.50;0.10;99688.00;;;;5096657;28;20300;-78
2022/01/26 08:16:39;;;;;;;12.70;3.53;;;1.10;99.90;0.10;99690.00;;;;5114564;28;20218;-81
2022/01/26 08:19:07;;;;;;;3.73;3.53;;;1.10;99.90;0.10;99678.00;;;;5114418;28;20222;-81
2022/01/26 08:21:36;;;;;;;1.83;1.73;;;1.10;99.90;0.20;99695.00;;;;5114500;28;20221;-82
2022/01/26 08:24:12;;;;;;;4.80;3.47;;;1.10;99.90;0.20;99699.00;;;;5114426;28;20742;-84
2022/01/26 08:26:42;;;;;;;4.27;3.97;;;1.10;99.90;0.20;99723.00;;;;5115512;28;20300;-82
2022/01/26 08:29:15;;;;;;;9.73;3.37;;;1.10;99.30;0.20;99704.00;;;;5118158;28;20208;-83
2022/01/26 08:31:42;;;;;;;3.00;2.80;;;1.10;99.40;0.20;99716.00;;;;5118004;28;20210;-81
2022/01/26 08:34:09;;;;;;;3.13;2.80;;;1.00;98.90;0.20;99718.00;;;;5118049;28;20206;-81
2022/01/26 08:36:35;;;;;;;3.50;3.20;;;1.00;98.70;0.20;99712.00;;;;5118045;28;20202;-81
2022/01/26 08:39:03;;;;;;;4.17;2.67;;;1.10;98.50;0.20;99714.00;;;;5117916;28;20212;-79
2022/01/26 08:41:30;;;;;;;3.33;2.30;;;1.10;98.40;0.10;99709.00;;;;5117890;28;20285;-78
2022/01/26 08:43:57;;;;;;;3.17;2.87;;;1.00;97.90;0.00;99717.00;;;;5117773;28;20222;-79
2022/01/26 08:46:23;;;;;;;2.10;2.00;;;1.00;98.40;0.20;99718.00;;;;5117832;28;20236;-77
2022/01/26 08:48:50;;;;;;;2.87;2.67;;;1.10;99.30;0.30;99714.00;;;;5117959;28;20198;-78
2022/01/26 08:51:18;;;;;;;2.63;2.43;;;1.10;99.00;0.30;99725.00;;;;5117839;28;20285;-78
2022/01/26 08:53:45;;;;;;;3.47;3.17;;;1.20;98.00;0.30;99687.00;;;;5117631;28;20212;-78
2022/01/26 08:56:12;;;;;;;2.90;2.70;;;1.20;97.30;0.30;99711.00;;;;5099685;28;20661;-77
2022/01/26 08:58:38;;;;;;;7.93;3.83;;;1.00;97.80;0.20;99713.00;;;;5117578;28;20202;-77
2022/01/26 09:01:05;;;;;;;3.20;3.00;;;1.00;98.00;0.20;99717.00;;;;5117579;28;20194;-79
2022/01/26 09:03:38;;;;;;;9.63;2.13;;;1.10;98.20;0.20;99722.00;;;;5117476;28;20601;-79
2022/01/26 09:06:04;;;;;;;2.00;1.90;;;1.10;98.40;0.30;99711.00;;;;5117479;28;20225;-79
2022/01/26 09:08:31;;;;;;;5.13;2.90;;;1.10;98.20;0.30;99736.00;;;;5117403;28;20224;-79
2022/01/26 09:11:00;;;;;;;2.23;2.03;;;1.10;98.10;0.30;99739.00;;;;5117421;28;20232;-79
2022/01/26 09:13:30;;;;;;;3.20;2.90;;;1.10;98.00;0.10;99731.00;;;;5117458;28;20651;-77
2022/01/26 09:15:57;;;;;;;3.20;2.90;;;1.10;97.40;0.00;99748.00;;;;5117349;28;20315;-78
2022/01/26 09:18:33;;;;;;;3.77;3.03;;;0.90;97.30;0.10;99735.00;;;;5117302;28;20205;-78
2022/01/26 09:21:00;;;;;;;3.27;2.33;;;1.00;97.30;0.20;99729.00;;;;5117305;28;20218;-81
2022/01/26 09:23:26;;;;;;;4.63;3.23;;;1.00;96.90;0.10;99738.00;;;;5117158;28;20288;-82
2022/01/26 09:25:53;;;;;;;3.03;2.83;;;1.00;95.50;0.10;99720.00;;;;5098987;28;20270;-80
2022/01/26 09:28:19;;;;;;;2.87;2.70;;;1.00;95.70;0.10;99726.00;;;;5099155;28;20225;-79
2022/01/26 09:30:46;;;;;;;3.60;2.87;;;1.00;95.80;0.10;99717.00;;;;5117150;28;20667;-78
2022/01/26 09:33:13;;;;;;;2.63;2.43;;;1.00;96.70;0.10;99713.00;;;;5117198;28;20259;-78
2022/01/26 09:35:40;;;;;;;4.60;2.57;;;1.10;96.30;0.20;99724.00;;;;5117252;28;20209;-79
2022/01/26 09:38:06;;;;;;;3.60;3.37;;;1.00;96.30;0.20;99725.00;;;;5115820;28;20565;-80
2022/01/26 09:40:33;;;;;;;2.97;2.67;;;1.10;96.20;0.00;99711.00;;;;5116958;28;20312;-80
2022/01/26 09:43:02;;;;;;;3.80;3.50;;;0.90;96.20;0.00;99702.00;;;;5116965;28;20201;-81
2022/01/26 09:45:34;;;;;;;2.80;2.57;;;0.90;96.50;-0.10;99711.00;;;;5116876;28;20281;-80
2022/01/26 09:48:05;;;;;;;3.13;2.93;;;0.80;96.40;0.00;99702.00;;;;5116839;28;20288;-82
2022/01/26 09:50:33;;;;;;;12.47;1.97;;;0.80;96.60;-0.20;99697.00;;;;5116852;28;20522;-79
2022/01/26 09:53:00;;;;;;;3.97;3.67;;;0.80;96.20;-0.20;99693.00;;;;5116776;28;20301;-81
2022/01/26 09:55:30;;;;;;;4.83;4.00;;;0.80;97.10;-0.20;99697.00;;;;5116781;28;20232;-82
2022/01/26 09:57:58;;;;;;;5.30;4.00;;;0.70;97.00;0.00;99702.00;;;;5116751;28;20627;-80
2022/01/26 10:00:25;;;;;;;12.73;3.47;;;1.00;96.40;-0.10;99695.00;;;;5116717;28;20344;-82
2022/01/26 10:02:57;;;;;;;3.87;3.57;;;0.80;96.50;0.20;99676.00;;;;5116631;28;20217;-82
2022/01/26 10:05:25;;;;;;;4.10;2.70;;;1.00;97.00;0.20;99667.00;;;;5116568;28;20279;-80
2022/01/26 10:08:07;;;;;;;2.37;2.27;;;1.10;96.30;0.20;99670.00;;;;5117338;28;20222;-79
2022/01/26 10:19:19;;;;;;;4.03;2.23;;;0.90;97.40;0.20;99672.00;;;;5016972;28;20237;-82
2022/01/26 10:21:47;;;;;;;6.23;4.10;;;1.10;96.80;0.20;99675.00;;;;5080543;28;20198;-78
2022/01/26 10:24:15;;;;;;;3.90;3.53;;;1.10;96.70;0.40;99673.00;;;;5117952;28;20208;-79
2022/01/26 10:26:49;;;;;;;3.23;2.97;;;1.20;96.80;0.50;99636.00;;;;5118161;28;20214;-80
2022/01/26 10:29:17;;;;;;;4.83;4.37;;;1.30;97.30;0.40;99672.00;;;;5099102;28;20198;-82
2022/01/26 10:31:46;;;;;;;3.37;3.17;;;1.30;96.80;0.10;99631.00;;;;5116274;28;20237;-81
2022/01/26 10:34:15;;;;;;;1.80;1.70;;;1.10;95.80;0.10;99658.00;;;;5116502;28;20198;-80
2022/01/26 10:36:45;;;;;;;5.37;4.00;;;1.10;96.60;0.00;99666.00;;;;5116484;28;20225;-80
2022/01/26 10:39:20;;;;;;;3.40;3.10;;;1.00;97.00;0.40;99688.00;;;;5118350;28;20633;-79
2022/01/26 10:41:54;;;;;;;2.30;2.20;;;1.20;98.20;0.40;99690.00;;;;5117549;28;20210;-80
2022/01/26 10:44:27;;;;;;;4.83;2.63;;;1.30;96.90;0.50;99691.00;;;;5117888;28;20665;-82
2022/01/26 10:46:53;;;;;;;4.53;3.77;;;1.30;96.60;0.40;99702.00;;;;5116665;28;20221;-81
2022/01/26 10:49:32;;;;;;;2.70;2.57;;;1.30;96.90;0.50;99689.00;;;;5115887;28;20285;-80
2022/01/26 10:52:02;;;;;;;5.37;3.73;;;1.40;96.80;0.60;99711.00;;;;5116810;28;20206;-82
2022/01/26 10:54:37;;;;;;;6.93;3.43;;;1.40;97.00;0.50;99719.00;;;;5116190;28;20195;-80
2022/01/26 10:57:10;;;;;;;7.20;4.10;;;1.40;96.90;0.40;99709.00;;;;5098312;28;20255;-80
2022/01/26 10:59:40;;;;;;;5.73;2.77;;;1.40;96.60;0.70;99728.00;;;;5099392;28;20230;-83
2022/01/26 11:02:08;;;;;;;2.40;2.27;;;1.50;96.60;0.80;99721.00;;;;5116055;28;20221;-83
2022/01/26 11:04:38;;;;;;;4.87;2.67;;;1.60;95.70;0.60;99727.00;;;;5098920;28;20198;-84
2022/01/26 11:07:08;;;;;;;3.60;3.23;;;1.50;94.90;0.50;99729.00;;;;5098906;28;20226;-82
2022/01/26 11:09:41;;;;;;;8.97;2.03;;;1.40;95.10;0.40;99730.00;;;;5116352;28;20229;-79
2022/01/26 11:12:11;;;;;;;2.23;2.03;;;1.30;95.80;0.40;99731.00;;;;5115866;28;20272;-83
2022/01/26 11:14:43;;;;;;;4.30;3.27;;;1.30;95.20;0.40;99700.00;;;;5115656;28;20201;-79
2022/01/26 11:17:25;;;;;;;4.47;4.17;;;1.30;95.90;0.30;99750.00;;;;5097725;28;20620;-78
2022/01/26 11:19:52;;;;;;;9.43;5.33;;;1.30;96.20;0.40;99728.00;;;;5115515;28;20621;-79
2022/01/26 11:22:25;;;;;;;10.77;2.63;;;1.30;96.00;0.30;99714.00;;;;5115988;28;20255;-79
2022/01/26 11:24:53;;;;;;;3.83;3.53;;;1.30;96.50;0.30;99701.00;;;;5115760;28;20194;-78
2022/01/26 11:27:20;;;;;;;2.23;1.63;;;1.20;95.50;0.20;99703.00;;;;5115445;28;20249;-80
2022/01/26 11:29:53;;;;;;;2.57;1.80;;;1.10;95.20;0.30;99722.00;;;;5097413;28;20204;-82
2022/01/26 11:32:28;;;;;;;2.83;2.67;;;1.20;95.30;0.20;99695.00;;;;5115173;28;20198;-82
2022/01/26 11:34:55;;;;;;;5.17;2.83;;;1.20;95.60;0.00;99694.00;;;;5115389;28;20231;-81
2022/01/26 11:37:36;;;;;;;3.10;2.73;;;1.00;95.90;0.20;99703.00;;;;5115308;28;20232;-79
2022/01/26 11:45:35;;;;;;;3.57;3.27;;;1.10;95.90;0.20;99701.00;;;;5115287;28;20221;-78
2022/01/26 11:48:08;;;;;;;3.00;2.80;;;1.20;95.90;0.20;99684.00;;;;5114917;28;20253;-80
2022/01/26 11:50:36;;;;;;;4.27;2.13;;;1.10;96.20;0.30;99687.00;;;;5115524;28;20194;-78
2022/01/26 11:53:07;;;;;;;3.43;3.13;;;1.20;96.40;0.30;99700.00;;;;5114980;28;20225;-80
2022/01/26 11:55:44;;;;;;;2.43;2.30;;;1.20;96.50;0.50;99711.00;;;;5114960;28;20206;-80
2022/01/26 11:58:17;;;;;;;2.37;2.10;;;1.30;96.40;0.10;99692.00;;;;5097183;28;20201;-79
2022/01/26 12:00:54;;;;;;;2.20;2.10;;;1.10;95.50;0.20;99699.00;;;;5115216;28;20498;-80
2022/01/26 12:03:29;;;;;;;2.17;2.07;;;1.10;95.50;0.20;99696.00;;;;5114989;28;20250;-79
2022/01/26 12:05:59;;;;;;;3.03;2.73;;;1.10;95.60;0.20;99695.00;;;;5114799;28;20231;-80
2022/01/26 12:08:37;;;;;;;2.43;2.33;;;1.10;95.20;0.20;99673.00;;;;5115246;28;20194;-80
2022/01/26 12:11:07;;;;;;;3.50;3.17;;;1.10;95.40;0.20;99670.00;;;;5115800;28;20205;-79
2022/01/26 12:13:37;;;;;;;5.60;3.27;;;1.10;95.00;0.30;99702.00;;;;5115259;28;20197;-78
2022/01/26 12:16:12;;;;;;;2.63;2.43;;;1.10;95.00;0.30;99702.00;;;;5115291;28;20194;-79
2022/01/26 12:18:46;;;;;;;2.60;2.40;;;1.10;94.80;0.30;99667.00;;;;5114664;28;20660;-80
2022/01/26 12:35:32;;;;;;;5.90;4.00;;;0.70;97.30;-0.10;99678.00;;;;5114641;28;20198;-78
2022/01/26 12:38:06;;;;;;;3.07;2.87;;;0.80;97.80;-0.10;99680.00;;;;5114323;28;20310;-80
2022/01/26 12:43:36;;;;;;;2.63;2.53;;;1.00;96.30;0.10;99694.00;;;;5114403;28;20625;-77
2022/01/26 12:46:04;;;;;;;2.80;2.53;;;1.00;96.80;0.00;99687.00;;;;5114582;28;20234;-83
2022/01/26 12:48:34;;;;;;;2.63;2.47;;;0.90;97.00;0.10;99690.00;;;;5117522;28;20332;-79